Bismarck Municipal Airport Bismarck US
ICAO: KBIS
IATA: BIS
Category: Medium
Scheduled Services: Yes

Elevation: 1661 ft
TransAlt. 18000 ft.

Airport Communications:
APP/DEP:126.3
ATIS:119.35
CTAF:118.3
GND:121.9
ARNG OPS:49.8
GRAND FORKS RDO:122.2
TWR:118.3
UNICOM:122.95

KBIS Zoom In..

If you have problems with the map follow the link
https://www.worldairports.se/pages/airport.php?
ICAO=KBIS

Runways:

(A) RW 03 length 6600 ft width 100 ft
---- / hdg 32

(B) RW 13 length 8794 ft width 150 ft
ILS 111.50 / hdg 131

(C) RW 21 length 6600 ft width 100 ft
---- / hdg 212

(D) RW 31 length 8794 ft width 150 ft
ILS 110.30 / hdg 311

Location; KBIS
Day. 08 / Time. 04.52 Zulu
* Altimeter: 29.66
* Temperature: -01° c. -30.2°f.
* Wind from: 270° Speed 06 kn.
Dewpoint: -03° c.
Visibility: 10 Statute Miles.
Clouds: Clear (automated report).

KBIS 080452Z 27006KT 10SM CLR M01/M03 A2966 RMK AO2 SLP067 T10111033


Wind From 270°
Speed 06 kn.

 
 
jpsmedia worldairports.se 2019   terms of use